sensor_id;sensor_type;location;lat;lon;timestamp;P1;durP1;ratioP1;P2;durP2;ratioP2
18503;SDS011;9381;54.244;10.074;2023-07-13T00:01:36;9.30;;;4.10;;
18503;SDS011;9381;54.244;10.074;2023-07-13T00:06:38;8.83;;;3.30;;
18503;SDS011;9381;54.244;10.074;2023-07-13T00:11:39;6.77;;;3.83;;
18503;SDS011;9381;54.244;10.074;2023-07-13T00:16:40;7.03;;;3.67;;
18503;SDS011;9381;54.244;10.074;2023-07-13T00:21:43;10.57;;;3.97;;
18503;SDS011;9381;54.244;10.074;2023-07-13T00:26:43;9.43;;;4.33;;
18503;SDS011;9381;54.244;10.074;2023-07-13T00:31:45;9.97;;;4.07;;
18503;SDS011;9381;54.244;10.074;2023-07-13T00:36:46;9.17;;;4.50;;
18503;SDS011;9381;54.244;10.074;2023-07-13T00:41:46;10.93;;;4.30;;
18503;SDS011;9381;54.244;10.074;2023-07-13T00:46:47;8.70;;;3.87;;
18503;SDS011;9381;54.244;10.074;2023-07-13T00:51:57;11.50;;;4.20;;
18503;SDS011;9381;54.244;10.074;2023-07-13T00:57:02;5.53;;;4.20;;
18503;SDS011;9381;54.244;10.074;2023-07-13T01:02:05;6.33;;;3.70;;
18503;SDS011;9381;54.244;10.074;2023-07-13T01:07:06;9.30;;;4.20;;
18503;SDS011;9381;54.244;10.074;2023-07-13T01:12:07;8.20;;;4.07;;
18503;SDS011;9381;54.244;10.074;2023-07-13T01:17:11;7.83;;;4.03;;
18503;SDS011;9381;54.244;10.074;2023-07-13T01:22:14;8.77;;;4.07;;
18503;SDS011;9381;54.244;10.074;2023-07-13T01:27:16;5.40;;;4.30;;
18503;SDS011;9381;54.244;10.074;2023-07-13T01:32:22;9.47;;;4.53;;
18503;SDS011;9381;54.244;10.074;2023-07-13T01:37:24;10.50;;;4.70;;
18503;SDS011;9381;54.244;10.074;2023-07-13T01:42:25;7.20;;;4.70;;
18503;SDS011;9381;54.244;10.074;2023-07-13T01:47:25;15.10;;;5.97;;
18503;SDS011;9381;54.244;10.074;2023-07-13T01:52:27;9.90;;;5.20;;
18503;SDS011;9381;54.244;10.074;2023-07-13T01:57:28;13.47;;;4.70;;
18503;SDS011;9381;54.244;10.074;2023-07-13T02:02:28;7.47;;;4.50;;
18503;SDS011;9381;54.244;10.074;2023-07-13T02:07:28;8.17;;;5.23;;
18503;SDS011;9381;54.244;10.074;2023-07-13T02:12:29;10.60;;;5.30;;
18503;SDS011;9381;54.244;10.074;2023-07-13T02:17:29;7.13;;;4.80;;
18503;SDS011;9381;54.244;10.074;2023-07-13T02:22:31;7.47;;;4.83;;
18503;SDS011;9381;54.244;10.074;2023-07-13T02:27:32;6.87;;;4.80;;
18503;SDS011;9381;54.244;10.074;2023-07-13T02:32:32;7.80;;;4.90;;
18503;SDS011;9381;54.244;10.074;2023-07-13T02:37:33;10.33;;;5.40;;
18503;SDS011;9381;54.244;10.074;2023-07-13T02:42:34;7.40;;;4.73;;
18503;SDS011;9381;54.244;10.074;2023-07-13T02:47:35;9.30;;;4.83;;
18503;SDS011;9381;54.244;10.074;2023-07-13T02:52:36;9.53;;;5.27;;
18503;SDS011;9381;54.244;10.074;2023-07-13T02:57:37;8.20;;;5.03;;
18503;SDS011;9381;54.244;10.074;2023-07-13T03:02:37;8.20;;;5.20;;
18503;SDS011;9381;54.244;10.074;2023-07-13T03:07:39;11.23;;;4.70;;
18503;SDS011;9381;54.244;10.074;2023-07-13T03:12:39;7.50;;;4.80;;
18503;SDS011;9381;54.244;10.074;2023-07-13T03:17:40;9.87;;;5.50;;
18503;SDS011;9381;54.244;10.074;2023-07-13T03:22:40;10.57;;;5.43;;
18503;SDS011;9381;54.244;10.074;2023-07-13T03:27:41;11.97;;;5.83;;
18503;SDS011;9381;54.244;10.074;2023-07-13T03:32:42;13.03;;;5.63;;
18503;SDS011;9381;54.244;10.074;2023-07-13T03:37:42;9.90;;;6.27;;
18503;SDS011;9381;54.244;10.074;2023-07-13T03:42:42;12.57;;;6.70;;
18503;SDS011;9381;54.244;10.074;2023-07-13T03:47:43;11.13;;;6.20;;
18503;SDS011;9381;54.244;10.074;2023-07-13T03:52:43;13.30;;;7.10;;
18503;SDS011;9381;54.244;10.074;2023-07-13T03:57:44;13.80;;;7.13;;
18503;SDS011;9381;54.244;10.074;2023-07-13T04:02:44;13.37;;;6.93;;
18503;SDS011;9381;54.244;10.074;2023-07-13T04:07:47;12.17;;;7.67;;
18503;SDS011;9381;54.244;10.074;2023-07-13T04:12:47;14.53;;;7.50;;
18503;SDS011;9381;54.244;10.074;2023-07-13T04:17:47;13.43;;;7.83;;
18503;SDS011;9381;54.244;10.074;2023-07-13T04:22:48;13.33;;;6.97;;
18503;SDS011;9381;54.244;10.074;2023-07-13T04:27:49;12.03;;;7.20;;
18503;SDS011;9381;54.244;10.074;2023-07-13T04:32:50;13.87;;;7.73;;
18503;SDS011;9381;54.244;10.074;2023-07-13T04:37:52;11.87;;;7.10;;
18503;SDS011;9381;54.244;10.074;2023-07-13T04:42:53;12.40;;;7.80;;
18503;SDS011;9381;54.244;10.074;2023-07-13T04:47:53;13.27;;;8.33;;
18503;SDS011;9381;54.244;10.074;2023-07-13T04:52:54;12.53;;;7.50;;
18503;SDS011;9381;54.244;10.074;2023-07-13T04:57:54;11.43;;;7.23;;
18503;SDS011;9381;54.244;10.074;2023-07-13T05:02:55;11.30;;;7.43;;
18503;SDS011;9381;54.244;10.074;2023-07-13T05:07:57;11.73;;;6.70;;
18503;SDS011;9381;54.244;10.074;2023-07-13T05:12:57;14.60;;;6.43;;
18503;SDS011;9381;54.244;10.074;2023-07-13T05:17:58;12.47;;;6.53;;
18503;SDS011;9381;54.244;10.074;2023-07-13T05:22:58;10.60;;;5.30;;
18503;SDS011;9381;54.244;10.074;2023-07-13T05:27:58;9.50;;;6.00;;
18503;SDS011;9381;54.244;10.074;2023-07-13T05:32:59;9.70;;;6.07;;
18503;SDS011;9381;54.244;10.074;2023-07-13T05:37:59;10.27;;;5.67;;
18503;SDS011;9381;54.244;10.074;2023-07-13T05:42:59;14.37;;;6.33;;
18503;SDS011;9381;54.244;10.074;2023-07-13T05:48:00;12.50;;;6.37;;
18503;SDS011;9381;54.244;10.074;2023-07-13T05:53:00;9.67;;;6.10;;
18503;SDS011;9381;54.244;10.074;2023-07-13T05:58:01;11.17;;;6.47;;
18503;SDS011;9381;54.244;10.074;2023-07-13T06:03:01;13.57;;;6.67;;
18503;SDS011;9381;54.244;10.074;2023-07-13T06:08:02;12.77;;;6.27;;
18503;SDS011;9381;54.244;10.074;2023-07-13T06:13:02;11.07;;;6.20;;
18503;SDS011;9381;54.244;10.074;2023-07-13T06:18:03;16.63;;;6.33;;
18503;SDS011;9381;54.244;10.074;2023-07-13T06:23:03;16.33;;;6.77;;
18503;SDS011;9381;54.244;10.074;2023-07-13T06:28:03;15.50;;;6.17;;
18503;SDS011;9381;54.244;10.074;2023-07-13T06:33:04;13.40;;;5.80;;
18503;SDS011;9381;54.244;10.074;2023-07-13T06:38:04;15.60;;;6.67;;
18503;SDS011;9381;54.244;10.074;2023-07-13T06:43:05;16.03;;;6.17;;
18503;SDS011;9381;54.244;10.074;2023-07-13T06:48:05;13.90;;;6.13;;
18503;SDS011;9381;54.244;10.074;2023-07-13T06:53:06;16.07;;;4.83;;
18503;SDS011;9381;54.244;10.074;2023-07-13T06:58:06;18.60;;;5.33;;
18503;SDS011;9381;54.244;10.074;2023-07-13T07:03:07;12.63;;;4.50;;
18503;SDS011;9381;54.244;10.074;2023-07-13T07:08:07;14.10;;;5.03;;
18503;SDS011;9381;54.244;10.074;2023-07-13T07:13:08;12.43;;;4.50;;
18503;SDS011;9381;54.244;10.074;2023-07-13T07:18:08;12.43;;;4.00;;
18503;SDS011;9381;54.244;10.074;2023-07-13T07:23:09;12.30;;;4.23;;
18503;SDS011;9381;54.244;10.074;2023-07-13T07:28:09;13.23;;;4.20;;
18503;SDS011;9381;54.244;10.074;2023-07-13T07:33:11;10.10;;;3.70;;
18503;SDS011;9381;54.244;10.074;2023-07-13T07:38:12;11.60;;;4.20;;
18503;SDS011;9381;54.244;10.074;2023-07-13T07:43:12;14.60;;;4.57;;
18503;SDS011;9381;54.244;10.074;2023-07-13T07:48:13;11.30;;;4.40;;
18503;SDS011;9381;54.244;10.074;2023-07-13T07:53:14;12.77;;;3.53;;
18503;SDS011;9381;54.244;10.074;2023-07-13T07:58:15;12.40;;;4.00;;
18503;SDS011;9381;54.244;10.074;2023-07-13T08:03:15;8.50;;;3.10;;
18503;SDS011;9381;54.244;10.074;2023-07-13T08:08:15;7.70;;;2.67;;
18503;SDS011;9381;54.244;10.074;2023-07-13T08:13:16;9.97;;;3.47;;
18503;SDS011;9381;54.244;10.074;2023-07-13T08:18:17;9.90;;;2.97;;
18503;SDS011;9381;54.244;10.074;2023-07-13T08:23:17;7.40;;;3.23;;
18503;SDS011;9381;54.244;10.074;2023-07-13T08:28:18;7.87;;;3.27;;
18503;SDS011;9381;54.244;10.074;2023-07-13T08:33:20;9.20;;;2.83;;
18503;SDS011;9381;54.244;10.074;2023-07-13T08:38:24;11.03;;;3.13;;
18503;SDS011;9381;54.244;10.074;2023-07-13T08:43:33;8.73;;;2.97;;
18503;SDS011;9381;54.244;10.074;2023-07-13T08:48:37;6.30;;;2.87;;
18503;SDS011;9381;54.244;10.074;2023-07-13T08:53:49;6.70;;;2.87;;
18503;SDS011;9381;54.244;10.074;2023-07-13T08:59:00;3.73;;;2.20;;
18503;SDS011;9381;54.244;10.074;2023-07-13T09:04:18;2.73;;;1.90;;
18503;SDS011;9381;54.244;10.074;2023-07-13T09:09:41;5.83;;;1.70;;
18503;SDS011;9381;54.244;10.074;2023-07-13T09:14:48;2.97;;;1.90;;
18503;SDS011;9381;54.244;10.074;2023-07-13T09:19:59;7.00;;;2.40;;
18503;SDS011;9381;54.244;10.074;2023-07-13T09:25:06;4.40;;;2.43;;
18503;SDS011;9381;54.244;10.074;2023-07-13T09:35:15;6.45;;;2.50;;
18503;SDS011;9381;54.244;10.074;2023-07-13T09:40:24;7.73;;;2.73;;
18503;SDS011;9381;54.244;10.074;2023-07-13T09:45:32;6.63;;;2.70;;
18503;SDS011;9381;54.244;10.074;2023-07-13T09:50:34;9.70;;;3.13;;
18503;SDS011;9381;54.244;10.074;2023-07-13T09:55:37;6.77;;;2.70;;
18503;SDS011;9381;54.244;10.074;2023-07-13T10:00:39;8.80;;;2.77;;
18503;SDS011;9381;54.244;10.074;2023-07-13T10:05:41;9.10;;;2.60;;
18503;SDS011;9381;54.244;10.074;2023-07-13T10:10:44;6.17;;;2.10;;
18503;SDS011;9381;54.244;10.074;2023-07-13T10:15:45;9.20;;;2.83;;
18503;SDS011;9381;54.244;10.074;2023-07-13T10:20:45;5.27;;;2.20;;
18503;SDS011;9381;54.244;10.074;2023-07-13T10:25:46;6.93;;;2.70;;
18503;SDS011;9381;54.244;10.074;2023-07-13T10:30:48;3.10;;;1.70;;
18503;SDS011;9381;54.244;10.074;2023-07-13T10:35:51;2.60;;;1.40;;
18503;SDS011;9381;54.244;10.074;2023-07-13T10:41:03;3.17;;;1.40;;
18503;SDS011;9381;54.244;10.074;2023-07-13T10:46:06;2.87;;;1.40;;
18503;SDS011;9381;54.244;10.074;2023-07-13T10:51:10;1.13;;;1.03;;
18503;SDS011;9381;54.244;10.074;2023-07-13T10:56:29;1.80;;;1.20;;
18503;SDS011;9381;54.244;10.074;2023-07-13T11:01:39;2.53;;;0.90;;
18503;SDS011;9381;54.244;10.074;2023-07-13T11:06:58;4.67;;;1.27;;
18503;SDS011;9381;54.244;10.074;2023-07-13T11:27:51;3.47;;;1.47;;
18503;SDS011;9381;54.244;10.074;2023-07-13T11:33:07;6.27;;;1.70;;
18503;SDS011;9381;54.244;10.074;2023-07-13T11:38:14;6.63;;;1.83;;
18503;SDS011;9381;54.244;10.074;2023-07-13T11:43:23;4.93;;;1.97;;
18503;SDS011;9381;54.244;10.074;2023-07-13T11:53:26;5.47;;;1.33;;
18503;SDS011;9381;54.244;10.074;2023-07-13T11:58:29;5.53;;;1.90;;
18503;SDS011;9381;54.244;10.074;2023-07-13T12:03:30;3.70;;;1.40;;
18503;SDS011;9381;54.244;10.074;2023-07-13T12:08:40;4.97;;;1.10;;
18503;SDS011;9381;54.244;10.074;2023-07-13T12:13:40;2.80;;;1.07;;
18503;SDS011;9381;54.244;10.074;2023-07-13T12:18:41;2.47;;;0.93;;
18503;SDS011;9381;54.244;10.074;2023-07-13T12:23:47;3.30;;;1.30;;
18503;SDS011;9381;54.244;10.074;2023-07-13T12:28:51;5.53;;;1.10;;
18503;SDS011;9381;54.244;10.074;2023-07-13T12:33:57;3.07;;;1.57;;
18503;SDS011;9381;54.244;10.074;2023-07-13T12:44:30;3.83;;;1.20;;
18503;SDS011;9381;54.244;10.074;2023-07-13T12:49:32;5.43;;;1.10;;
18503;SDS011;9381;54.244;10.074;2023-07-13T12:54:34;4.47;;;1.23;;
18503;SDS011;9381;54.244;10.074;2023-07-13T12:59:39;2.80;;;1.20;;
18503;SDS011;9381;54.244;10.074;2023-07-13T13:04:40;6.70;;;1.40;;
18503;SDS011;9381;54.244;10.074;2023-07-13T13:09:40;2.63;;;1.03;;
18503;SDS011;9381;54.244;10.074;2023-07-13T13:14:41;3.87;;;1.47;;
18503;SDS011;9381;54.244;10.074;2023-07-13T13:19:42;5.00;;;1.40;;
18503;SDS011;9381;54.244;10.074;2023-07-13T13:24:42;8.23;;;2.03;;
18503;SDS011;9381;54.244;10.074;2023-07-13T13:29:42;8.30;;;1.60;;
18503;SDS011;9381;54.244;10.074;2023-07-13T13:34:45;2.90;;;1.27;;
18503;SDS011;9381;54.244;10.074;2023-07-13T13:39:46;6.60;;;1.27;;
18503;SDS011;9381;54.244;10.074;2023-07-13T13:44:54;5.50;;;1.40;;
18503;SDS011;9381;54.244;10.074;2023-07-13T13:49:58;6.30;;;1.60;;
18503;SDS011;9381;54.244;10.074;2023-07-13T13:55:00;5.93;;;1.80;;
18503;SDS011;9381;54.244;10.074;2023-07-13T14:00:00;4.53;;;1.50;;
18503;SDS011;9381;54.244;10.074;2023-07-13T14:05:01;4.60;;;1.60;;
18503;SDS011;9381;54.244;10.074;2023-07-13T14:10:08;3.37;;;1.57;;
18503;SDS011;9381;54.244;10.074;2023-07-13T14:15:19;7.77;;;1.47;;
18503;SDS011;9381;54.244;10.074;2023-07-13T14:20:22;5.10;;;1.40;;
18503;SDS011;9381;54.244;10.074;2023-07-13T14:25:24;3.93;;;1.50;;
18503;SDS011;9381;54.244;10.074;2023-07-13T14:30:25;10.00;;;1.73;;
18503;SDS011;9381;54.244;10.074;2023-07-13T14:35:25;8.27;;;1.67;;
18503;SDS011;9381;54.244;10.074;2023-07-13T14:40:28;4.30;;;2.07;;
18503;SDS011;9381;54.244;10.074;2023-07-13T14:45:30;5.73;;;2.23;;
18503;SDS011;9381;54.244;10.074;2023-07-13T14:50:31;7.83;;;1.90;;
18503;SDS011;9381;54.244;10.074;2023-07-13T14:55:32;4.87;;;1.40;;
18503;SDS011;9381;54.244;10.074;2023-07-13T15:00:33;7.33;;;1.50;;
18503;SDS011;9381;54.244;10.074;2023-07-13T15:05:33;5.77;;;2.17;;
18503;SDS011;9381;54.244;10.074;2023-07-13T15:10:34;3.10;;;1.47;;
18503;SDS011;9381;54.244;10.074;2023-07-13T15:15:35;4.37;;;1.40;;
18503;SDS011;9381;54.244;10.074;2023-07-13T15:20:36;6.23;;;1.60;;
18503;SDS011;9381;54.244;10.074;2023-07-13T15:25:37;5.40;;;1.87;;
18503;SDS011;9381;54.244;10.074;2023-07-13T15:35:48;6.40;;;1.70;;
18503;SDS011;9381;54.244;10.074;2023-07-13T15:40:51;3.10;;;1.40;;
18503;SDS011;9381;54.244;10.074;2023-07-13T15:45:52;4.83;;;1.33;;
18503;SDS011;9381;54.244;10.074;2023-07-13T15:50:54;3.47;;;1.37;;
18503;SDS011;9381;54.244;10.074;2023-07-13T15:56:00;6.73;;;1.80;;
18503;SDS011;9381;54.244;10.074;2023-07-13T16:01:11;4.80;;;1.53;;
18503;SDS011;9381;54.244;10.074;2023-07-13T16:06:13;5.10;;;1.40;;
18503;SDS011;9381;54.244;10.074;2023-07-13T16:11:38;2.63;;;1.33;;
18503;SDS011;9381;54.244;10.074;2023-07-13T16:16:39;4.07;;;1.50;;
18503;SDS011;9381;54.244;10.074;2023-07-13T16:21:44;6.10;;;1.70;;
18503;SDS011;9381;54.244;10.074;2023-07-13T16:26:46;6.40;;;1.63;;
18503;SDS011;9381;54.244;10.074;2023-07-13T16:37:11;6.23;;;1.97;;
18503;SDS011;9381;54.244;10.074;2023-07-13T16:42:24;7.23;;;2.30;;
18503;SDS011;9381;54.244;10.074;2023-07-13T16:47:25;6.40;;;1.93;;
18503;SDS011;9381;54.244;10.074;2023-07-13T16:52:25;6.97;;;1.90;;
18503;SDS011;9381;54.244;10.074;2023-07-13T16:57:29;5.13;;;1.90;;
18503;SDS011;9381;54.244;10.074;2023-07-13T17:02:34;4.47;;;1.60;;
18503;SDS011;9381;54.244;10.074;2023-07-13T17:07:36;3.77;;;1.60;;
18503;SDS011;9381;54.244;10.074;2023-07-13T17:12:37;5.47;;;1.93;;
18503;SDS011;9381;54.244;10.074;2023-07-13T17:17:37;4.47;;;1.43;;
18503;SDS011;9381;54.244;10.074;2023-07-13T17:22:42;5.43;;;2.00;;
18503;SDS011;9381;54.244;10.074;2023-07-13T17:27:45;6.27;;;2.10;;
18503;SDS011;9381;54.244;10.074;2023-07-13T17:32:46;4.03;;;1.73;;
18503;SDS011;9381;54.244;10.074;2023-07-13T17:37:48;7.67;;;2.20;;
18503;SDS011;9381;54.244;10.074;2023-07-13T17:42:50;6.20;;;2.00;;
18503;SDS011;9381;54.244;10.074;2023-07-13T17:47:54;5.57;;;2.13;;
18503;SDS011;9381;54.244;10.074;2023-07-13T17:52:56;5.00;;;1.93;;
18503;SDS011;9381;54.244;10.074;2023-07-13T17:57:57;8.63;;;2.50;;
18503;SDS011;9381;54.244;10.074;2023-07-13T18:02:58;6.93;;;2.00;;
18503;SDS011;9381;54.244;10.074;2023-07-13T18:08:01;4.87;;;1.87;;
18503;SDS011;9381;54.244;10.074;2023-07-13T18:13:04;7.53;;;2.27;;
18503;SDS011;9381;54.244;10.074;2023-07-13T18:18:07;7.70;;;2.10;;
18503;SDS011;9381;54.244;10.074;2023-07-13T18:23:21;4.53;;;2.00;;
18503;SDS011;9381;54.244;10.074;2023-07-13T18:28:23;5.47;;;1.70;;
18503;SDS011;9381;54.244;10.074;2023-07-13T18:33:25;7.80;;;2.17;;
18503;SDS011;9381;54.244;10.074;2023-07-13T18:38:29;5.00;;;2.00;;
18503;SDS011;9381;54.244;10.074;2023-07-13T18:43:32;4.23;;;2.13;;
18503;SDS011;9381;54.244;10.074;2023-07-13T18:48:32;8.30;;;2.10;;
18503;SDS011;9381;54.244;10.074;2023-07-13T18:53:33;5.63;;;2.40;;
18503;SDS011;9381;54.244;10.074;2023-07-13T18:58:33;5.00;;;2.33;;
18503;SDS011;9381;54.244;10.074;2023-07-13T19:03:34;9.80;;;2.60;;
18503;SDS011;9381;54.244;10.074;2023-07-13T19:08:37;5.87;;;2.63;;
18503;SDS011;9381;54.244;10.074;2023-07-13T19:13:41;11.80;;;2.50;;
18503;SDS011;9381;54.244;10.074;2023-07-13T19:18:43;6.93;;;2.73;;
18503;SDS011;9381;54.244;10.074;2023-07-13T19:23:45;6.33;;;2.27;;
18503;SDS011;9381;54.244;10.074;2023-07-13T19:28:47;4.63;;;2.30;;
18503;SDS011;9381;54.244;10.074;2023-07-13T19:33:50;9.57;;;3.20;;
18503;SDS011;9381;54.244;10.074;2023-07-13T19:38:51;9.27;;;2.77;;
18503;SDS011;9381;54.244;10.074;2023-07-13T19:43:52;4.23;;;2.30;;
18503;SDS011;9381;54.244;10.074;2023-07-13T19:48:53;14.87;;;3.17;;
18503;SDS011;9381;54.244;10.074;2023-07-13T19:53:56;6.33;;;2.80;;
18503;SDS011;9381;54.244;10.074;2023-07-13T20:04:37;6.90;;;2.80;;
18503;SDS011;9381;54.244;10.074;2023-07-13T20:09:38;7.77;;;2.43;;
18503;SDS011;9381;54.244;10.074;2023-07-13T20:14:43;7.70;;;3.37;;
18503;SDS011;9381;54.244;10.074;2023-07-13T20:19:46;7.60;;;2.87;;
18503;SDS011;9381;54.244;10.074;2023-07-13T20:24:47;6.20;;;2.70;;
18503;SDS011;9381;54.244;10.074;2023-07-13T20:29:47;11.43;;;3.17;;
18503;SDS011;9381;54.244;10.074;2023-07-13T20:34:48;8.03;;;2.80;;
18503;SDS011;9381;54.244;10.074;2023-07-13T20:39:48;7.47;;;2.53;;
18503;SDS011;9381;54.244;10.074;2023-07-13T20:44:48;9.50;;;3.10;;
18503;SDS011;9381;54.244;10.074;2023-07-13T20:49:49;14.07;;;3.37;;
18503;SDS011;9381;54.244;10.074;2023-07-13T20:54:53;7.30;;;3.27;;
18503;SDS011;9381;54.244;10.074;2023-07-13T20:59:53;8.07;;;3.10;;
18503;SDS011;9381;54.244;10.074;2023-07-13T21:04:54;6.07;;;2.80;;
18503;SDS011;9381;54.244;10.074;2023-07-13T21:09:54;9.73;;;3.83;;
18503;SDS011;9381;54.244;10.074;2023-07-13T21:14:55;12.70;;;3.53;;
18503;SDS011;9381;54.244;10.074;2023-07-13T21:19:57;8.53;;;3.53;;
18503;SDS011;9381;54.244;10.074;2023-07-13T21:24:58;10.20;;;3.77;;
18503;SDS011;9381;54.244;10.074;2023-07-13T21:29:58;8.00;;;3.43;;
18503;SDS011;9381;54.244;10.074;2023-07-13T21:34:59;10.53;;;3.90;;
18503;SDS011;9381;54.244;10.074;2023-07-13T21:40:03;8.33;;;3.80;;
18503;SDS011;9381;54.244;10.074;2023-07-13T21:45:12;9.83;;;3.93;;
18503;SDS011;9381;54.244;10.074;2023-07-13T21:50:25;12.23;;;4.23;;
18503;SDS011;9381;54.244;10.074;2023-07-13T21:55:33;9.80;;;4.03;;
18503;SDS011;9381;54.244;10.074;2023-07-13T22:00:34;10.77;;;4.33;;
18503;SDS011;9381;54.244;10.074;2023-07-13T22:05:34;10.10;;;4.33;;
18503;SDS011;9381;54.244;10.074;2023-07-13T22:10:35;8.00;;;3.67;;
18503;SDS011;9381;54.244;10.074;2023-07-13T22:15:36;12.30;;;4.47;;
18503;SDS011;9381;54.244;10.074;2023-07-13T22:20:37;9.43;;;4.10;;
18503;SDS011;9381;54.244;10.074;2023-07-13T22:25:37;11.53;;;4.30;;
18503;SDS011;9381;54.244;10.074;2023-07-13T22:30:38;9.90;;;4.40;;
18503;SDS011;9381;54.244;10.074;2023-07-13T22:35:38;15.73;;;5.27;;
18503;SDS011;9381;54.244;10.074;2023-07-13T22:40:39;8.10;;;4.43;;
18503;SDS011;9381;54.244;10.074;2023-07-13T22:45:39;10.90;;;4.77;;
18503;SDS011;9381;54.244;10.074;2023-07-13T22:50:40;10.13;;;4.87;;
18503;SDS011;9381;54.244;10.074;2023-07-13T22:55:41;10.67;;;4.73;;
18503;SDS011;9381;54.244;10.074;2023-07-13T23:00:41;8.30;;;5.07;;
18503;SDS011;9381;54.244;10.074;2023-07-13T23:05:42;12.00;;;5.40;;
18503;SDS011;9381;54.244;10.074;2023-07-13T23:10:44;15.43;;;6.20;;
18503;SDS011;9381;54.244;10.074;2023-07-13T23:15:47;9.20;;;5.13;;
18503;SDS011;9381;54.244;10.074;2023-07-13T23:20:49;9.13;;;5.00;;
18503;SDS011;9381;54.244;10.074;2023-07-13T23:25:50;13.13;;;6.30;;
18503;SDS011;9381;54.244;10.074;2023-07-13T23:30:50;11.50;;;5.43;;
18503;SDS011;9381;54.244;10.074;2023-07-13T23:35:51;8.40;;;5.77;;
18503;SDS011;9381;54.244;10.074;2023-07-13T23:40:57;10.37;;;5.70;;
18503;SDS011;9381;54.244;10.074;2023-07-13T23:45:57;12.97;;;5.90;;
18503;SDS011;9381;54.244;10.074;2023-07-13T23:50:58;9.20;;;5.43;;
18503;SDS011;9381;54.244;10.074;2023-07-13T23:55:58;12.23;;;5.47;;
